Time;durP1;ratioP1;P1;durP2;ratioP2;P2;SDS_P1;SDS_P2;PMS_P1;PMS_P2;Temp;Humidity;BMP_temperature;BMP_pressure;BME280_temperature;BME280_humidity;BME280_pressure;Samples;Min_cycle;Max_cycle;Signal;HPM_P1;HPM_P2
2023/08/13 00:01:26;;;;;;;8.37;7.60;;;28.00;65.50;;;;;;4979505;28;20471;-44
2023/08/13 00:03:51;;;;;;;6.60;6.00;;;28.00;65.70;;;;;;4982839;28;20198;-44
2023/08/13 00:06:17;;;;;;;9.00;7.80;;;27.90;65.70;;;;;;4979662;28;20273;-44
2023/08/13 00:08:42;;;;;;;6.57;5.80;;;28.00;65.40;;;;;;4986940;28;20364;-44
2023/08/13 00:11:11;;;;;;;10.40;9.30;;;28.00;65.40;;;;;;4985790;28;20213;-44
2023/08/13 00:13:37;;;;;;;8.63;7.93;;;28.00;65.40;;;;;;4980828;28;20202;-49
2023/08/13 00:16:03;;;;;;;11.00;8.53;;;27.90;65.80;;;;;;4984795;28;20929;-44
2023/08/13 00:18:29;;;;;;;9.40;8.60;;;27.90;66.00;;;;;;4987340;28;20448;-44
2023/08/13 00:20:55;;;;;;;8.90;8.20;;;27.80;66.00;;;;;;4990064;28;20528;-44
2023/08/13 00:23:20;;;;;;;9.43;8.53;;;27.80;66.40;;;;;;4983854;28;20222;-45
2023/08/13 00:25:46;;;;;;;6.57;5.97;;;27.80;66.60;;;;;;4981178;28;20195;-45
2023/08/13 00:28:12;;;;;;;7.63;6.93;;;27.80;66.20;;;;;;4987694;28;20238;-44
2023/08/13 00:30:37;;;;;;;4.83;4.50;;;27.80;65.70;;;;;;4988634;28;20201;-46
2023/08/13 00:33:03;;;;;;;7.97;7.37;;;27.80;65.40;;;;;;4981781;28;21981;-43
2023/08/13 00:35:28;;;;;;;9.40;8.27;;;27.90;64.90;;;;;;4977939;28;20195;-48
2023/08/13 00:37:54;;;;;;;8.20;7.50;;;27.90;64.80;;;;;;4987475;28;20210;-44
2023/08/13 00:40:19;;;;;;;7.60;7.00;;;27.80;64.70;;;;;;4989301;28;20198;-44
2023/08/13 00:42:45;;;;;;;8.20;7.40;;;27.70;65.30;;;;;;4986856;28;20209;-45
2023/08/13 00:45:11;;;;;;;9.53;8.63;;;27.70;65.40;;;;;;4982636;28;20233;-45
2023/08/13 00:47:37;;;;;;;9.60;8.70;;;27.70;65.60;;;;;;4982400;28;20654;-45
2023/08/13 00:50:04;;;;;;;9.30;8.43;;;27.60;65.80;;;;;;4987889;28;20201;-44
2023/08/13 00:52:30;;;;;;;11.03;9.80;;;27.60;65.90;;;;;;4985714;28;20442;-44
2023/08/13 00:54:56;;;;;;;7.57;6.80;;;27.60;66.00;;;;;;4989175;28;20485;-46
2023/08/13 00:57:23;;;;;;;9.20;8.40;;;27.60;65.90;;;;;;4986128;28;20197;-44
2023/08/13 00:59:50;;;;;;;7.60;7.00;;;27.60;66.00;;;;;;4982472;28;20836;-44
2023/08/13 01:02:16;;;;;;;7.40;6.83;;;27.60;65.80;;;;;;4983212;28;20449;-43
2023/08/13 01:04:41;;;;;;;8.67;7.87;;;27.60;65.90;;;;;;4982289;28;20452;-44
2023/08/13 01:07:24;;;;;;;8.47;7.77;;;27.60;65.80;;;;;;4985154;28;20195;-44
2023/08/13 01:10:14;;;;;;;10.57;7.97;;;27.60;65.60;;;;;;4985970;28;20567;-44
2023/08/13 01:13:00;;;;;;;7.20;6.60;;;27.60;65.50;;;;;;4986236;28;20454;-44
2023/08/13 01:15:35;;;;;;;9.43;8.53;;;27.70;65.50;;;;;;4993377;28;20452;-45
2023/08/13 01:18:01;;;;;;;8.80;8.00;;;27.60;65.30;;;;;;4996728;28;20488;-46
2023/08/13 01:20:32;;;;;;;9.37;8.47;;;27.60;65.30;;;;;;4984274;28;20930;-44
2023/08/13 01:22:57;;;;;;;7.90;7.30;;;27.60;65.30;;;;;;4986590;28;20466;-43
2023/08/13 01:25:25;;;;;;;8.43;7.37;;;27.50;65.40;;;;;;4987637;28;20930;-44
2023/08/13 01:28:03;;;;;;;9.30;7.80;;;27.40;65.60;;;;;;4990647;28;20238;-44
2023/08/13 01:30:31;;;;;;;8.50;7.80;;;27.40;65.90;;;;;;4990831;28;20809;-47
2023/08/13 01:33:03;;;;;;;6.13;5.63;;;27.30;66.10;;;;;;4985569;28;20441;-45
2023/08/13 01:35:31;;;;;;;7.60;7.00;;;27.30;66.20;;;;;;4987619;28;20438;-48
2023/08/13 01:37:59;;;;;;;7.93;7.33;;;27.30;66.20;;;;;;4988503;28;20876;-44
2023/08/13 01:40:24;;;;;;;8.93;7.33;;;27.30;66.30;;;;;;4987635;28;20444;-44
2023/08/13 01:42:50;;;;;;;7.83;7.23;;;27.30;66.90;;;;;;4986699;28;20441;-44
2023/08/13 01:45:16;;;;;;;15.73;7.20;;;27.40;66.00;;;;;;4991935;28;20628;-44
2023/08/13 01:47:41;;;;;;;7.00;6.27;;;27.40;65.90;;;;;;4991497;28;20257;-44
2023/08/13 01:50:07;;;;;;;6.13;5.70;;;27.40;65.80;;;;;;4987671;28;20199;-44
2023/08/13 01:52:33;;;;;;;8.70;8.00;;;27.30;65.80;;;;;;4991116;28;20249;-44
2023/08/13 01:54:58;;;;;;;9.50;8.17;;;27.40;65.50;;;;;;4983379;28;20199;-44
2023/08/13 01:57:24;;;;;;;9.40;8.60;;;27.40;65.50;;;;;;4988725;28;20270;-44
2023/08/13 01:59:49;;;;;;;6.57;6.07;;;27.50;65.50;;;;;;4982664;28;20616;-45
2023/08/13 02:02:15;;;;;;;9.70;6.90;;;27.40;65.80;;;;;;4981757;28;20206;-44
2023/08/13 02:04:41;;;;;;;9.40;8.20;;;27.40;65.90;;;;;;4989657;28;20283;-45
2023/08/13 02:07:06;;;;;;;6.70;6.20;;;27.40;66.10;;;;;;4991508;28;20206;-43
2023/08/13 02:09:32;;;;;;;6.87;6.20;;;27.40;66.20;;;;;;4992622;28;20230;-44
2023/08/13 02:11:57;;;;;;;23.33;8.53;;;27.40;66.20;;;;;;4986842;28;20187;-44
2023/08/13 02:14:24;;;;;;;21.73;8.30;;;27.20;67.30;;;;;;4986104;28;20218;-45
2023/08/13 02:16:50;;;;;;;9.63;8.73;;;26.90;69.20;;;;;;4990113;28;20576;-45
2023/08/13 02:19:15;;;;;;;30.57;9.00;;;26.90;69.50;;;;;;4985019;28;20452;-45
2023/08/13 02:21:41;;;;;;;16.67;7.03;;;26.90;69.40;;;;;;4985361;28;20785;-45
2023/08/13 02:24:06;;;;;;;11.83;7.13;;;26.70;70.50;;;;;;4986533;28;20205;-44
2023/08/13 02:26:32;;;;;;;9.87;9.07;;;26.70;70.20;;;;;;4988429;28;20253;-44
2023/08/13 02:28:57;;;;;;;9.13;8.20;;;26.80;69.70;;;;;;4992340;28;20336;-45
2023/08/13 02:31:23;;;;;;;9.17;8.37;;;26.80;69.60;;;;;;4990712;28;20190;-48
2023/08/13 02:33:48;;;;;;;9.17;8.27;;;26.90;69.70;;;;;;4983869;28;20681;-47
2023/08/13 02:36:14;;;;;;;10.00;9.10;;;26.90;69.30;;;;;;4990353;28;20540;-48
2023/08/13 02:38:40;;;;;;;8.50;7.70;;;27.00;68.70;;;;;;4990600;28;20202;-44
2023/08/13 02:41:05;;;;;;;10.83;9.83;;;27.10;68.60;;;;;;4988299;28;20198;-46
2023/08/13 02:43:50;;;;;;;9.37;8.57;;;27.20;68.20;;;;;;4987141;28;20205;-48
2023/08/13 02:46:16;;;;;;;8.37;7.60;;;27.20;67.90;;;;;;4986750;28;20658;-47
2023/08/13 02:48:41;;;;;;;7.00;6.50;;;27.20;67.80;;;;;;4983305;28;20560;-43
2023/08/13 02:51:07;;;;;;;7.93;7.23;;;27.20;67.70;;;;;;4994148;28;20714;-49
2023/08/13 02:53:32;;;;;;;6.17;5.67;;;27.20;67.20;;;;;;4989992;28;20209;-44
2023/08/13 02:55:58;;;;;;;4.80;4.47;;;27.20;67.20;;;;;;4985861;28;20198;-47
2023/08/13 02:58:23;;;;;;;7.53;6.93;;;27.10;67.60;;;;;;4986242;28;20202;-45
2023/08/13 03:00:49;;;;;;;6.83;6.23;;;27.10;67.70;;;;;;4989262;28;20249;-44
2023/08/13 03:03:14;;;;;;;7.30;6.60;;;27.00;67.90;;;;;;4991570;28;20183;-43
2023/08/13 03:05:40;;;;;;;32.33;10.63;;;27.00;68.30;;;;;;4991627;28;20576;-45
2023/08/13 03:08:06;;;;;;;6.00;5.50;;;26.90;69.30;;;;;;4984388;28;20265;-44
2023/08/13 03:10:31;;;;;;;11.20;7.63;;;26.70;70.40;;;;;;4998721;28;20197;-47
2023/08/13 03:12:57;;;;;;;7.73;7.13;;;26.80;69.90;;;;;;4996944;28;20199;-45
2023/08/13 03:15:22;;;;;;;7.30;6.70;;;26.80;70.00;;;;;;4987478;28;20214;-44
2023/08/13 03:17:48;;;;;;;10.23;8.90;;;26.90;69.50;;;;;;4986194;28;20277;-43
2023/08/13 03:20:14;;;;;;;5.73;5.23;;;27.00;69.00;;;;;;4985987;28;20186;-44
2023/08/13 03:22:39;;;;;;;7.17;6.53;;;27.10;68.10;;;;;;4988958;28;20194;-44
2023/08/13 03:25:05;;;;;;;157.27;12.70;;;27.10;67.50;;;;;;4989991;28;20195;-44
2023/08/13 03:27:31;;;;;;;7.27;6.57;;;27.10;67.70;;;;;;4985034;28;20611;-44
2023/08/13 03:29:56;;;;;;;8.50;7.60;;;27.00;69.40;;;;;;4986806;28;20203;-44
2023/08/13 03:32:22;;;;;;;5.37;4.87;;;27.00;69.20;;;;;;4992174;28;20190;-44
2023/08/13 03:34:47;;;;;;;50.13;8.60;;;27.10;68.50;;;;;;4989874;28;20600;-43
2023/08/13 03:37:13;;;;;;;8.00;7.07;;;27.10;67.50;;;;;;4987484;28;20206;-45
2023/08/13 03:39:38;;;;;;;8.47;7.70;;;27.00;67.80;;;;;;4986024;28;20643;-44
2023/08/13 03:42:04;;;;;;;8.70;8.00;;;27.10;67.80;;;;;;4988238;28;20201;-44
2023/08/13 03:44:30;;;;;;;8.47;7.70;;;27.10;67.50;;;;;;4984777;28;20256;-44
2023/08/13 03:46:55;;;;;;;8.17;7.47;;;27.20;67.50;;;;;;4982907;28;20195;-43
2023/08/13 03:49:21;;;;;;;8.33;7.30;;;27.20;67.40;;;;;;4978748;28;20229;-49
2023/08/13 03:51:47;;;;;;;7.43;6.83;;;27.10;67.50;;;;;;4981549;28;20201;-48
2023/08/13 03:54:12;;;;;;;4.77;4.37;;;27.10;67.50;;;;;;4983853;28;20199;-48
2023/08/13 03:56:38;;;;;;;7.53;6.83;;;27.10;67.60;;;;;;4994617;28;20203;-47
2023/08/13 03:59:03;;;;;;;6.70;6.17;;;27.10;67.30;;;;;;4987334;28;20195;-45
2023/08/13 04:01:29;;;;;;;6.77;6.17;;;27.10;66.70;;;;;;4981740;28;20202;-47
2023/08/13 04:03:54;;;;;;;5.93;5.50;;;27.10;66.90;;;;;;4990807;28;20665;-49
2023/08/13 04:06:20;;;;;;;6.40;5.90;;;27.00;67.60;;;;;;4982452;28;20564;-44
2023/08/13 04:08:45;;;;;;;5.37;4.97;;;27.00;67.80;;;;;;4983099;28;20231;-47
2023/08/13 04:11:11;;;;;;;7.57;6.97;;;27.00;67.50;;;;;;4980958;28;20203;-47
2023/08/13 04:13:37;;;;;;;7.80;7.20;;;27.10;68.20;;;;;;4991415;28;20201;-44
2023/08/13 04:16:02;;;;;;;6.80;6.30;;;27.20;67.30;;;;;;4984915;28;20308;-44
2023/08/13 04:18:28;;;;;;;7.70;5.03;;;27.20;67.00;;;;;;4979343;28;20218;-46
2023/08/13 04:20:53;;;;;;;6.23;5.73;;;27.20;66.90;;;;;;4986003;28;20224;-47
2023/08/13 04:23:19;;;;;;;7.17;6.63;;;27.20;66.70;;;;;;4981992;28;20269;-44
2023/08/13 04:25:45;;;;;;;5.83;5.37;;;27.20;66.60;;;;;;4980978;28;20515;-44
2023/08/13 04:28:10;;;;;;;6.47;5.87;;;27.20;66.60;;;;;;4982724;28;20261;-44
2023/08/13 04:30:36;;;;;;;5.57;5.10;;;27.20;66.50;;;;;;4981775;28;20194;-45
2023/08/13 04:33:02;;;;;;;4.87;4.43;;;27.30;66.50;;;;;;4984707;28;20203;-47
2023/08/13 04:35:28;;;;;;;5.27;4.87;;;27.30;66.10;;;;;;4982305;28;21199;-48
2023/08/13 04:37:53;;;;;;;5.23;4.87;;;27.30;65.80;;;;;;4983039;28;20453;-44
2023/08/13 04:40:19;;;;;;;8.47;7.77;;;27.30;65.60;;;;;;4996274;28;20178;-46
2023/08/13 04:42:45;;;;;;;7.57;6.97;;;27.30;65.50;;;;;;4989836;28;20278;-47
2023/08/13 04:45:12;;;;;;;8.67;7.77;;;27.30;65.70;;;;;;4982782;28;20209;-45
2023/08/13 04:47:38;;;;;;;5.77;5.27;;;27.30;65.80;;;;;;4982914;28;20226;-44
2023/08/13 04:50:05;;;;;;;8.37;7.60;;;27.30;66.20;;;;;;4982759;28;20450;-45
2023/08/13 04:52:31;;;;;;;6.13;5.60;;;27.30;66.30;;;;;;4986693;28;20957;-46
2023/08/13 04:54:56;;;;;;;6.30;5.80;;;27.30;66.10;;;;;;4986881;28;20461;-44
2023/08/13 04:57:22;;;;;;;8.37;7.67;;;27.30;66.00;;;;;;4992186;28;20190;-48
2023/08/13 04:59:48;;;;;;;4.20;3.80;;;27.30;65.70;;;;;;4992429;28;20224;-46
2023/08/13 05:02:13;;;;;;;4.23;3.90;;;27.30;65.60;;;;;;4985147;28;20198;-44
2023/08/13 05:04:39;;;;;;;3.90;3.70;;;27.30;65.80;;;;;;4984636;28;20194;-44
2023/08/13 05:07:04;;;;;;;3.93;3.53;;;27.30;65.80;;;;;;4992430;28;20774;-44
2023/08/13 05:09:31;;;;;;;7.20;6.70;;;27.40;65.30;;;;;;4988229;28;20950;-45
2023/08/13 05:11:57;;;;;;;6.43;5.90;;;27.40;64.80;;;;;;4984249;28;20191;-44
2023/08/13 05:14:22;;;;;;;7.17;6.67;;;27.40;64.70;;;;;;4982444;28;21233;-44
2023/08/13 05:16:48;;;;;;;6.93;6.33;;;27.50;65.00;;;;;;4990217;28;20203;-44
2023/08/13 05:19:14;;;;;;;6.30;5.70;;;27.40;65.40;;;;;;4987769;28;20565;-44
2023/08/13 05:21:39;;;;;;;6.23;5.73;;;27.40;65.70;;;;;;4985897;28;20202;-48
2023/08/13 05:24:05;;;;;;;6.30;5.80;;;27.20;66.40;;;;;;4987742;28;20194;-44
2023/08/13 05:26:31;;;;;;;8.00;6.97;;;27.20;66.70;;;;;;4990048;28;20199;-46
2023/08/13 05:28:57;;;;;;;6.50;6.00;;;27.20;66.70;;;;;;4993003;28;21044;-48
2023/08/13 05:31:22;;;;;;;6.77;6.27;;;27.20;67.00;;;;;;4986376;28;20194;-44
2023/08/13 05:33:48;;;;;;;7.50;6.90;;;27.20;67.20;;;;;;4988739;28;20276;-46
2023/08/13 05:36:13;;;;;;;6.23;5.73;;;27.20;67.70;;;;;;4990295;28;20230;-45
2023/08/13 05:38:39;;;;;;;6.20;5.80;;;27.20;67.80;;;;;;4988833;28;20198;-45
2023/08/13 05:41:06;;;;;;;4.73;3.90;;;27.20;68.10;;;;;;4989935;28;20471;-47
2023/08/13 05:43:31;;;;;;;6.93;6.33;;;27.10;68.50;;;;;;4989016;28;20450;-44
2023/08/13 05:45:57;;;;;;;7.10;6.50;;;27.10;68.10;;;;;;4990419;28;20202;-44
2023/08/13 05:48:22;;;;;;;5.60;5.20;;;27.10;68.20;;;;;;4993465;28;20276;-46
2023/08/13 05:50:48;;;;;;;6.00;5.50;;;27.10;68.30;;;;;;4984441;28;21024;-45
2023/08/13 05:53:14;;;;;;;5.60;5.20;;;27.00;68.70;;;;;;4983922;28;20199;-45
2023/08/13 05:55:39;;;;;;;7.03;6.33;;;26.90;69.30;;;;;;4986482;28;20638;-45
2023/08/13 05:58:05;;;;;;;6.73;6.20;;;27.00;69.40;;;;;;4994274;28;20599;-46
2023/08/13 06:00:34;;;;;;;6.00;5.50;;;27.00;69.20;;;;;;4987589;28;20207;-44
2023/08/13 06:02:59;;;;;;;6.13;5.53;;;26.90;69.40;;;;;;4989554;28;20614;-45
2023/08/13 06:05:25;;;;;;;7.20;6.60;;;26.90;69.70;;;;;;4988597;28;20450;-45
2023/08/13 06:07:50;;;;;;;6.60;6.10;;;27.00;69.70;;;;;;4987886;28;20206;-46
2023/08/13 06:10:16;;;;;;;6.10;5.60;;;27.00;69.90;;;;;;4984182;28;20261;-43
2023/08/13 06:12:42;;;;;;;5.63;5.23;;;27.00;69.80;;;;;;4980026;28;20285;-46
2023/08/13 06:15:09;;;;;;;5.70;5.30;;;27.00;69.80;;;;;;4993261;28;20201;-46
2023/08/13 06:17:35;;;;;;;5.23;4.73;;;27.00;69.70;;;;;;4987452;28;20545;-45
2023/08/13 06:20:01;;;;;;;5.40;5.00;;;27.10;69.70;;;;;;4986396;28;20454;-44
2023/08/13 06:22:26;;;;;;;4.40;4.10;;;27.10;69.80;;;;;;4988198;28;20195;-46
2023/08/13 06:24:52;;;;;;;5.40;5.00;;;27.10;70.00;;;;;;4991283;28;20232;-44
2023/08/13 06:27:18;;;;;;;5.53;5.03;;;27.10;69.80;;;;;;4991005;28;20690;-47
2023/08/13 06:29:43;;;;;;;4.97;4.57;;;27.10;69.90;;;;;;4995286;28;20226;-44
2023/08/13 06:32:09;;;;;;;5.67;5.27;;;27.20;69.90;;;;;;4982455;28;20662;-43
2023/08/13 06:34:34;;;;;;;4.70;4.40;;;27.20;69.40;;;;;;4985733;28;20286;-44
2023/08/13 06:37:01;;;;;;;6.13;5.73;;;27.00;70.30;;;;;;4991544;28;20972;-44
2023/08/13 06:39:28;;;;;;;3.83;3.53;;;27.00;70.50;;;;;;4991630;28;20687;-43
2023/08/13 06:41:53;;;;;;;4.27;3.87;;;27.10;70.40;;;;;;4985386;28;21035;-45
2023/08/13 06:44:20;;;;;;;5.50;5.00;;;27.10;69.90;;;;;;4978285;28;20450;-45
2023/08/13 06:46:49;;;;;;;5.57;4.93;;;26.90;70.90;;;;;;4978328;28;20199;-45
2023/08/13 06:49:14;;;;;;;6.23;5.00;;;26.80;71.40;;;;;;4984099;28;20482;-47
2023/08/13 06:51:40;;;;;;;5.50;5.10;;;26.80;72.20;;;;;;4983196;28;20668;-43
2023/08/13 06:54:06;;;;;;;4.63;4.23;;;26.60;72.60;;;;;;4990831;28;20199;-45
2023/08/13 06:56:33;;;;;;;3.93;3.63;;;26.70;72.40;;;;;;4991346;28;20790;-45
2023/08/13 06:58:58;;;;;;;5.57;5.20;;;26.80;71.90;;;;;;4987747;28;20203;-44
2023/08/13 07:01:24;;;;;;;5.50;5.00;;;26.90;71.30;;;;;;4984384;28;20842;-45
2023/08/13 07:03:50;;;;;;;3.87;3.57;;;27.00;70.80;;;;;;4978559;28;20191;-45
2023/08/13 07:06:15;;;;;;;4.23;3.93;;;27.10;70.30;;;;;;4976518;28;20204;-43
2023/08/13 07:08:41;;;;;;;6.63;5.53;;;27.20;69.60;;;;;;4978778;28;20702;-45
2023/08/13 07:11:06;;;;;;;5.10;4.70;;;27.30;69.70;;;;;;4989821;28;20777;-43
2023/08/13 07:13:32;;;;;;;5.43;5.03;;;27.30;69.70;;;;;;4983457;28;20198;-44
2023/08/13 07:15:57;;;;;;;5.77;5.27;;;27.40;70.00;;;;;;4989257;28;20534;-43
2023/08/13 07:18:23;;;;;;;4.50;4.10;;;27.30;70.20;;;;;;4988872;28;20202;-43
2023/08/13 07:20:49;;;;;;;5.27;4.77;;;27.40;70.30;;;;;;4986448;28;20187;-43
2023/08/13 07:23:14;;;;;;;6.27;4.40;;;27.40;70.20;;;;;;4994611;28;20221;-45
2023/08/13 07:25:40;;;;;;;4.10;3.80;;;27.40;70.20;;;;;;4988178;28;20202;-45
2023/08/13 07:28:06;;;;;;;4.60;4.23;;;27.40;70.10;;;;;;4990278;28;20260;-43
2023/08/13 07:30:32;;;;;;;4.20;3.90;;;27.50;70.10;;;;;;4989935;28;20203;-44
2023/08/13 07:32:58;;;;;;;4.10;3.80;;;27.50;69.80;;;;;;4988318;28;20484;-46
2023/08/13 07:35:24;;;;;;;4.37;4.07;;;27.50;69.60;;;;;;4986292;28;20197;-44
2023/08/13 07:37:50;;;;;;;5.13;4.73;;;27.50;69.80;;;;;;4990803;28;20661;-45
2023/08/13 07:40:16;;;;;;;4.70;4.40;;;27.50;70.20;;;;;;4978819;28;20529;-45
2023/08/13 07:42:42;;;;;;;3.70;3.40;;;27.50;71.20;;;;;;4985483;28;20229;-43
2023/08/13 07:45:08;;;;;;;3.77;3.57;;;27.50;70.60;;;;;;4995205;28;20478;-43
2023/08/13 07:47:36;;;;;;;4.10;3.80;;;27.50;70.50;;;;;;4990298;28;20199;-43
2023/08/13 07:50:04;;;;;;;3.40;3.20;;;27.60;70.60;;;;;;4991647;28;20497;-43
2023/08/13 07:52:34;;;;;;;4.67;4.27;;;27.60;70.00;;;;;;4984577;28;20534;-43
2023/08/13 07:55:00;;;;;;;3.80;3.60;;;27.70;69.80;;;;;;4979410;28;20446;-43
2023/08/13 07:57:25;;;;;;;2.50;2.40;;;27.70;69.80;;;;;;4990837;28;20445;-43
2023/08/13 07:59:51;;;;;;;3.10;2.90;;;27.80;69.90;;;;;;4987752;28;20504;-43
2023/08/13 08:02:16;;;;;;;3.47;3.27;;;27.70;69.80;;;;;;4980961;28;20286;-45
2023/08/13 08:04:44;;;;;;;4.53;4.10;;;27.70;69.80;;;;;;4983518;28;20190;-44
2023/08/13 08:07:10;;;;;;;4.20;3.57;;;27.80;69.90;;;;;;4991030;28;20203;-43
2023/08/13 08:09:36;;;;;;;3.03;2.77;;;27.70;69.80;;;;;;4992029;28;20485;-43
2023/08/13 08:12:01;;;;;;;3.73;3.40;;;27.70;69.60;;;;;;4988522;28;20198;-43
2023/08/13 08:14:27;;;;;;;3.10;2.90;;;27.80;69.70;;;;;;5003430;28;20269;-45
2023/08/13 08:16:57;;;;;;;3.13;2.90;;;27.90;69.70;;;;;;4980456;28;20195;-44
2023/08/13 08:19:23;;;;;;;3.90;3.57;;;27.90;68.00;;;;;;4991646;28;20245;-43
2023/08/13 08:21:48;;;;;;;3.10;2.90;;;27.80;69.50;;;;;;4989379;28;20508;-42
2023/08/13 08:24:14;;;;;;;3.37;2.90;;;27.90;69.30;;;;;;4989358;28;20198;-43
2023/08/13 08:26:40;;;;;;;3.13;2.93;;;27.90;69.90;;;;;;4991589;28;20238;-43
2023/08/13 08:29:05;;;;;;;3.50;3.30;;;28.00;69.30;;;;;;4983826;28;20222;-44
2023/08/13 08:31:32;;;;;;;2.73;2.53;;;28.10;68.80;;;;;;4984202;28;20203;-43
2023/08/13 08:33:58;;;;;;;3.63;3.33;;;28.20;68.40;;;;;;4981558;28;20194;-43
2023/08/13 08:36:24;;;;;;;2.90;2.70;;;28.30;68.30;;;;;;4984952;28;20469;-44
2023/08/13 08:38:50;;;;;;;3.50;3.20;;;28.40;67.80;;;;;;4985325;28;20693;-43
2023/08/13 08:41:17;;;;;;;4.17;3.20;;;28.50;67.10;;;;;;4987071;28;20437;-43
2023/08/13 08:43:44;;;;;;;3.87;3.43;;;28.50;67.40;;;;;;4984430;28;20277;-44
2023/08/13 08:46:11;;;;;;;5.20;3.63;;;28.00;67.50;;;;;;4990695;28;20442;-43
2023/08/13 08:48:39;;;;;;;3.57;3.17;;;28.20;67.80;;;;;;4985225;28;20489;-42
2023/08/13 08:51:06;;;;;;;3.90;3.60;;;27.90;67.70;;;;;;4982018;28;20454;-43
2023/08/13 08:53:34;;;;;;;4.90;3.53;;;27.70;68.70;;;;;;4987692;28;20555;-43
2023/08/13 08:55:59;;;;;;;3.50;3.30;;;27.70;68.20;;;;;;4984560;28;22152;-44
2023/08/13 08:58:25;;;;;;;3.93;3.23;;;27.90;68.50;;;;;;4983385;28;20450;-48
2023/08/13 09:00:56;;;;;;;3.77;3.47;;;27.80;67.60;;;;;;4977127;28;20721;-48
2023/08/13 09:03:22;;;;;;;3.67;3.33;;;27.90;67.80;;;;;;4988694;28;20520;-44
2023/08/13 09:09:09;;;;;;;3.10;2.90;;;28.40;67.40;;;;;;5104642;23;20255;-44
2023/08/13 09:11:35;;;;;;;3.57;3.27;;;28.40;65.90;;;;;;5015519;28;20440;-46
2023/08/13 09:14:02;;;;;;;3.53;3.23;;;28.40;66.40;;;;;;5020792;28;20198;-44
2023/08/13 09:16:27;;;;;;;3.87;3.57;;;28.60;66.90;;;;;;5017947;28;20210;-44
2023/08/13 09:18:53;;;;;;;4.00;3.67;;;28.70;66.80;;;;;;5020181;28;20452;-47
2023/08/13 09:21:24;;;;;;;4.10;3.70;;;28.80;65.80;;;;;;5026193;28;20202;-47
2023/08/13 09:23:54;;;;;;;3.53;3.23;;;28.90;65.60;;;;;;5028222;28;20192;-44
2023/08/13 09:26:19;;;;;;;3.87;3.67;;;29.00;65.00;;;;;;5028244;28;21154;-45
2023/08/13 09:28:45;;;;;;;4.47;3.63;;;29.00;64.80;;;;;;5028281;28;20511;-45
2023/08/13 09:31:11;;;;;;;4.13;3.73;;;29.10;64.70;;;;;;5033952;28;20567;-45
2023/08/13 09:33:36;;;;;;;3.50;3.20;;;29.20;65.10;;;;;;5027235;28;20565;-45
2023/08/13 09:36:02;;;;;;;8.73;4.70;;;29.30;66.80;;;;;;5032639;28;20523;-44
2023/08/13 09:38:28;;;;;;;4.80;4.00;;;29.10;65.20;;;;;;5029805;28;20596;-45
2023/08/13 09:40:53;;;;;;;4.87;3.60;;;29.30;66.40;;;;;;5031891;28;20710;-44
2023/08/13 09:43:24;;;;;;;3.20;2.90;;;29.50;65.60;;;;;;5029883;28;20204;-46
2023/08/13 09:45:51;;;;;;;4.27;3.90;;;29.70;65.50;;;;;;5029975;28;20204;-46
2023/08/13 09:48:21;;;;;;;3.80;3.50;;;29.80;60.60;;;;;;5032205;28;20483;-44
2023/08/13 09:50:50;;;;;;;4.13;3.60;;;29.80;63.00;;;;;;5030479;28;21012;-47
2023/08/13 09:53:20;;;;;;;4.40;4.00;;;30.10;62.80;;;;;;5032848;28;20451;-44
2023/08/13 09:55:51;;;;;;;4.60;4.20;;;30.20;60.10;;;;;;5031539;28;20950;-49
2023/08/13 09:58:18;;;;;;;3.70;3.40;;;30.20;59.80;;;;;;5029037;28;20503;-47
2023/08/13 10:00:46;;;;;;;3.70;3.40;;;30.20;60.80;;;;;;5031056;28;20451;-45
2023/08/13 10:03:12;;;;;;;4.00;3.70;;;30.30;60.30;;;;;;5029155;28;20439;-45
2023/08/13 10:05:38;;;;;;;3.60;3.30;;;30.40;59.80;;;;;;5029877;28;20439;-46
2023/08/13 10:08:06;;;;;;;3.33;3.00;;;30.60;60.70;;;;;;5031838;28;20567;-49
2023/08/13 10:10:31;;;;;;;3.60;3.40;;;30.80;60.00;;;;;;5032560;28;20456;-46
2023/08/13 10:12:57;;;;;;;3.43;3.13;;;31.00;60.30;;;;;;5031195;28;20459;-47
2023/08/13 10:15:24;;;;;;;4.30;3.67;;;31.10;58.40;;;;;;5028540;28;20272;-46
2023/08/13 10:17:51;;;;;;;4.60;3.30;;;31.30;57.60;;;;;;5030745;28;20454;-46
2023/08/13 10:20:17;;;;;;;3.60;3.30;;;31.40;57.60;;;;;;5033673;28;20436;-46
2023/08/13 10:22:45;;;;;;;3.20;2.90;;;31.50;56.60;;;;;;5030775;28;20444;-48
2023/08/13 10:25:28;;;;;;;3.30;3.10;;;31.60;56.70;;;;;;5031609;28;20439;-48
2023/08/13 10:27:55;;;;;;;3.23;3.03;;;31.50;57.00;;;;;;5024528;28;20447;-49
2023/08/13 10:30:21;;;;;;;3.80;3.50;;;31.60;57.00;;;;;;5033577;28;20447;-46
2023/08/13 10:33:07;;;;;;;4.17;3.40;;;31.60;56.20;;;;;;5030276;28;20446;-47
2023/08/13 10:35:37;;;;;;;3.97;3.43;;;31.70;56.70;;;;;;5022794;28;20818;-49
2023/08/13 10:38:04;;;;;;;4.10;3.70;;;31.80;56.10;;;;;;5027288;28;21005;-46
2023/08/13 10:40:30;;;;;;;3.83;3.43;;;31.80;55.30;;;;;;5027594;28;20491;-47
2023/08/13 10:42:56;;;;;;;3.70;3.17;;;31.80;55.30;;;;;;5032083;28;20563;-46
2023/08/13 10:45:28;;;;;;;3.63;3.20;;;32.00;55.30;;;;;;5031123;28;20471;-48
2023/08/13 10:48:02;;;;;;;3.27;2.97;;;32.20;56.10;;;;;;5028066;28;20546;-51
2023/08/13 10:50:31;;;;;;;13.83;4.10;;;32.30;55.60;;;;;;5029474;28;20872;-46
2023/08/13 10:53:01;;;;;;;4.43;3.50;;;32.40;54.00;;;;;;5031503;28;20507;-46
2023/08/13 10:55:29;;;;;;;3.63;3.33;;;32.60;54.10;;;;;;5032439;28;20482;-49
2023/08/13 10:57:55;;;;;;;4.00;3.20;;;32.70;53.80;;;;;;5027438;28;20436;-49
2023/08/13 11:00:25;;;;;;;5.13;3.40;;;32.70;53.60;;;;;;5025161;28;20487;-47
2023/08/13 11:03:00;;;;;;;3.60;3.00;;;32.80;53.30;;;;;;5025069;28;20201;-45
2023/08/13 11:05:27;;;;;;;4.00;3.53;;;32.80;52.90;;;;;;5033136;28;20790;-47
2023/08/13 11:07:52;;;;;;;4.00;3.70;;;32.80;51.70;;;;;;5028787;28;20493;-46
2023/08/13 11:10:19;;;;;;;5.10;3.60;;;32.80;51.60;;;;;;5027709;28;20443;-46
2023/08/13 11:12:49;;;;;;;4.00;3.60;;;32.80;52.00;;;;;;5027087;28;20197;-49
2023/08/13 11:15:15;;;;;;;3.73;3.50;;;32.80;52.00;;;;;;5031826;28;20447;-46
2023/08/13 11:17:46;;;;;;;4.00;3.60;;;32.80;51.80;;;;;;5028625;28;20906;-46
2023/08/13 11:20:13;;;;;;;4.50;3.93;;;32.80;51.80;;;;;;5031237;28;20523;-47
2023/08/13 11:22:39;;;;;;;3.50;3.20;;;32.80;51.60;;;;;;5024133;28;20448;-47
2023/08/13 11:25:07;;;;;;;3.50;3.20;;;32.70;52.30;;;;;;5019543;28;20852;-45
2023/08/13 11:27:34;;;;;;;3.77;3.47;;;32.70;52.20;;;;;;5027822;28;20444;-45
2023/08/13 11:30:01;;;;;;;3.80;3.50;;;32.70;53.00;;;;;;5025687;28;20488;-46
2023/08/13 11:32:26;;;;;;;4.50;3.70;;;32.70;52.20;;;;;;5020422;28;20943;-46
2023/08/13 11:34:52;;;;;;;3.57;3.37;;;32.70;52.30;;;;;;5021811;28;20458;-46
2023/08/13 11:37:18;;;;;;;4.67;3.40;;;32.90;52.20;;;;;;5029716;28;20193;-45
2023/08/13 11:39:43;;;;;;;3.17;2.90;;;33.00;52.50;;;;;;5024686;28;20728;-47
2023/08/13 11:42:09;;;;;;;2.90;2.70;;;33.00;53.00;;;;;;5022536;28;20625;-45
2023/08/13 11:44:35;;;;;;;3.53;3.33;;;33.10;52.80;;;;;;5024680;28;20288;-50
2023/08/13 11:47:04;;;;;;;3.63;3.13;;;33.20;51.90;;;;;;5027969;28;20198;-46
2023/08/13 11:49:30;;;;;;;3.40;3.20;;;33.20;51.60;;;;;;5023606;28;20581;-45
2023/08/13 11:51:57;;;;;;;3.80;3.50;;;33.30;52.30;;;;;;5028136;28;20512;-48
2023/08/13 11:54:23;;;;;;;5.13;3.03;;;33.30;53.00;;;;;;5023759;28;20435;-52
2023/08/13 11:56:50;;;;;;;3.50;2.90;;;33.40;52.40;;;;;;5017147;28;20444;-45
2023/08/13 11:59:23;;;;;;;4.10;2.80;;;33.60;52.90;;;;;;5021379;28;20809;-46
2023/08/13 12:01:56;;;;;;;5.73;3.53;;;33.70;52.60;;;;;;5024892;28;20511;-45
2023/08/13 12:04:22;;;;;;;3.67;3.33;;;33.80;52.10;;;;;;5024612;28;20946;-47
2023/08/13 12:06:51;;;;;;;6.13;3.90;;;33.80;51.90;;;;;;5026461;28;20440;-46
2023/08/13 12:09:16;;;;;;;3.30;3.00;;;33.70;52.30;;;;;;5022272;28;20494;-50
2023/08/13 12:11:42;;;;;;;2.80;2.43;;;33.80;52.00;;;;;;5025136;28;20432;-48
2023/08/13 12:14:08;;;;;;;4.43;3.10;;;33.90;52.70;;;;;;5026486;28;20285;-45
2023/08/13 12:16:34;;;;;;;3.47;3.17;;;33.90;53.30;;;;;;5025323;28;20231;-49
2023/08/13 12:19:03;;;;;;;4.23;3.90;;;33.80;52.40;;;;;;5013445;28;20453;-49
2023/08/13 12:21:29;;;;;;;3.47;3.27;;;33.80;52.50;;;;;;5027200;28;20494;-49
2023/08/13 12:23:54;;;;;;;4.03;3.73;;;33.90;51.90;;;;;;5018372;28;20526;-50
2023/08/13 12:26:21;;;;;;;3.67;3.47;;;33.80;51.60;;;;;;5024409;28;20194;-45
2023/08/13 12:28:50;;;;;;;4.40;4.00;;;33.90;51.60;;;;;;5023927;28;20599;-49
2023/08/13 12:31:17;;;;;;;4.17;3.77;;;33.80;51.30;;;;;;5021748;28;20544;-50
2023/08/13 12:33:42;;;;;;;5.20;3.10;;;33.80;50.60;;;;;;5030952;28;21067;-46
2023/08/13 12:36:08;;;;;;;5.97;4.00;;;33.80;51.10;;;;;;5030377;28;20432;-47
2023/08/13 12:38:34;;;;;;;3.70;3.50;;;33.80;51.00;;;;;;5028844;28;20197;-46
2023/08/13 12:41:00;;;;;;;3.67;3.40;;;33.90;51.90;;;;;;5031056;28;20691;-48
2023/08/13 12:43:25;;;;;;;3.60;3.20;;;33.90;51.00;;;;;;5027423;28;20444;-49
2023/08/13 12:45:51;;;;;;;4.10;3.80;;;34.00;50.80;;;;;;5030632;28;20273;-47